CheckWX is a tool to help pilots better visualize weather data.  It is not intended as a substitute for an official pre-flight weather briefing.

01:53:55 UTC

FNUB TAF
Lubango Airport
Lubango, Angola
TAF FNUB 182245Z 1900/1912 VRB03KT 9999 SCT015 FEW022CB BECMG 1910/1912 15010KT FEW020

Mar-19@
00:00 UTC

Mar-19 @ 00:00 UTC

Mar-19@
10:00 UTC

Mar-19 @ 10:00 UTC

TAF FNUB 182245Z 1900/1912 VRB03KT 9999 SCT015 FEW022CB
Wind
  • Variable at 3 KTS
Cloud Levels
  • Scattered at 1,500' AGL
  • Few at 2,200' AGL

Mar-19@
10:00 UTC

Mar-19 @ 10:00 UTC

Mar-19@
12:00 UTC

Mar-19 @ 12:00 UTC

BECMG 1910/1912 15010KT FEW020

Becoming

Becoming Conditions expected by Tue, Mar 19, 2019 @ 12:00 UTC

Wind
  • 150° at 10 KTS
Cloud Levels
  • Few at 2,000' AGL